Giacomo Marini

Olheiro - Palermo
3 Dez 2028
Domingo
Processo

Personalidade

Adaptabilidade (14) Ambição (4) Controvérsia (14) Lealdade (10) Pressão (16) Profissionalismo (15) Espírito Esportivo (4) Temperamento (1)

Perfil

Estilo de Treinamento Democrático
Licença Nacional B
Determinação 5
Gestão de Pessoas 9
Motivação 6
Disciplina 7
Satisfação no Trabalho
100%
Fadiga
0%
Função Olheiro
Salário 18.6K p/s
Contrato 14.03.2029

Desempenho

Comportamento Bom
Eficácia do Treinamento
50%
Desenvolvimento do Jogador
35%
Prevenção de Lesões
25%
Implementação Tática
60%

Eventos Recentes

Participou de uma reunião de recrutamento agora
Recomendou um alvo de transferência agora
Recomendou um alvo de transferência 7d atrás
Avaliou um jogador 7d atrás
Avaliou um jogador 7d atrás
Avaliou um jogador 7d atrás
Avaliou um jogador 7d atrás
Avaliou um jogador 7d atrás

Monitorando agora

130
Jogador Clube Status Habilidade Confiança Observado Última observação Último voto
Riquelme Thompson-Jones Accrington Stanley Ativo 117 / 120 40% 7 01.12.2028 -
Jan Bürger Northampton Town Ativo 123 / 128 40% 5 01.12.2028 -
Azizbek To'lqinbekov Bunyodkor Ativo 100 / 102 40% 8 01.12.2028 -
Trey Nyoni Rotherham United Ativo 148 / 147 40% 13 28.11.2028 -
Kiani Inge Groningen Ativo 113 / 125 40% 7 28.11.2028 -
Louis Page Leicester City Ativo 142 / 145 40% 10 28.11.2028 -
Cheveyo Tsawa Club Brugge Ativo 126 / 130 40% 3 25.11.2028 -
Rafael Mota Sporting CP Ativo 125 / 122 40% 3 25.11.2028 -
Daniel Banjaqui Benfica Ativo 131 / 135 40% 9 23.11.2028 -
Kwesi Sorotu Badori Berekum Chelsea Ativo 104 / 109 40% 5 23.11.2028 -
Bernardo Lima Porto Ativo 115 / 130 40% 1 23.11.2028 -
Federico Matarán Giana Erminio Ativo 106 / 122 40% 8 22.11.2028 -
Salvador Blopá Wolverhampton Ativo 132 / 128 40% 2 22.11.2028 -
Johan Solstad-Nøis Tromso Ativo 92 / 104 40% 5 21.11.2028 -
Noah Markmann Esbjerg Ativo 127 / 128 40% 2 21.11.2028 -
Andrija Bulatović Chamois Niortais Ativo 134 / 135 40% 3 21.11.2028 -
Eman Košpo Zorya Ativo 115 / 109 40% 2 19.11.2028 -
Davinchi Getafe Ativo 133 / 132 40% 2 19.11.2028 -
Andrey Ivlev Nizhniy Novgorod Ativo 128 / 118 40% 4 13.11.2028 -
Martim Cunha Porto Ativo 116 / 118 40% 6 12.11.2028 -
Tyson Pearce St. Louis CITY SC Ativo 84 / 93 40% 7 12.11.2028 -
Máximo Munarriz San Telmo Ativo 98 / 99 40% 8 10.11.2028 -
Snyder Brunell Seattle Sounders Ativo 93 / 94 40% 6 07.11.2028 -
Celías Ingenthron Platense Ativo 116 / 126 40% 6 06.11.2028 -
Mateo Caballero Defensor Sporting Ativo 112 / 102 40% 4 06.11.2028 -
Felipe Pujol Vélez Ativo 122 / 123 40% 2 06.11.2028 -
Filip Reshane Stabaek Ativo 92 / 101 40% 2 04.11.2028 -
Máximo Magnoli Ferro Carril Oeste Ativo 102 / 106 40% 4 03.11.2028 -
Matteo Palma Udinese Ativo 136 / 144 40% 13 02.11.2028 -
Tyler Fletcher Rotherham United Ativo 120 / 128 40% 4 02.11.2028 -
Matías Satas Grimsby Town Ativo 103 / 112 40% 2 02.11.2028 -
Diego León Rotherham United Ativo 121 / 130 40% 6 29.10.2028 -
Miguel Figueiredo Benfica Ativo 128 / 133 40% 4 27.10.2028 -
Pietro La Torre Queens Park Rangers Ativo 108 / 108 40% 2 26.10.2028 -
David Weiss Omonoia Ativo 97 / 103 40% 1 21.10.2028 -
Giovanni Leoni Lincoln City Ativo 153 / 150 40% 7 18.10.2028 -
Björn Hedlöf Helsingborg Ativo 103 / 95 40% 3 16.10.2028 -
Aarón Martín Al-Qadisiyah Ativo 124 / 124 40% 4 16.10.2028 -
Tobías Ramírez River Plate Ativo 122 / 135 40% 8 15.10.2028 -
Facundo Balatti Penarol Ativo 97 / 103 40% 3 11.10.2028 -
Agustín Medina Lanús Ativo 111 / 131 40% 9 07.10.2028 -
Chris Rigg West Ham United Ativo 143 / 148 40% 1 05.10.2028 -
Matías Magdaleno Estudiantes Ativo 101 / 119 40% 3 30.09.2028 -
Muminhon Bahodirxonov Neftchi Ativo 88 / 95 40% 1 27.09.2028 -
Tobías Andrada River Plate Ativo 116 / 119 40% 2 25.09.2028 -
Fabio Rispoli Como Ativo 126 / 126 40% 4 20.09.2028 -
Andrei Racu Kasimpasa Ativo 94 / 98 40% 1 20.09.2028 -
Alejandro Almaraz NK Celje Ativo 122 / 131 40% 1 19.09.2028 -
Moses Sesay Southampton Ativo 120 / 120 40% 1 19.09.2028 -
Rhys Chadwick Blackpool Ativo 116 / 114 40% 1 18.09.2028 -
Lautaro Dufur Juventud Ativo 91 / 113 40% 4 16.09.2028 -
Germán Barbas Racing Santander Ativo 117 / 126 40% 2 12.09.2028 -
Felipe Obradovich Ferro Carril Oeste Ativo 108 / 115 40% 2 10.09.2028 -
Sergio Martínez Real Madrid Ativo 117 / 133 40% 2 08.09.2028 -
Santiago Espíndola River Plate Ativo 115 / 126 40% 2 04.09.2028 -
Christos Mouzakitis Hull City Ativo 147 / 147 40% 6 31.08.2028 -
Ezra Mayers West Ham United Ativo 135 / 137 40% 2 29.08.2028 -
Ridgeciano Haps Audace Cerignola Relatório pronto 122 / 114 69% 1 28.08.2028 -
Axel Tape Bayer Leverkusen Ativo 140 / 141 40% 1 28.08.2028 -
Federico Nardin Willem II Ativo 110 / 108 40% 1 24.08.2028 -
Valentín Loza Defensa y Justicia Ativo 96 / 118 40% 1 21.08.2028 -
Diego Cheuquepal Racing Ativo 107 / 114 40% 1 21.08.2028 -
Diego Vargas Universidad de Concepcion Ativo 84 / 92 40% 4 17.08.2028 -
Nicolò Moranduzzo Renate Ativo 91 / 103 40% 1 17.08.2028 -
Ernie Weaver Sheffield Wednesday Ativo 118 / 124 40% 1 16.08.2028 -
Sascha Britschgi AC Milan Ativo 127 / 133 40% 3 15.08.2028 -
Josh Stephenson Brentford Ativo 126 / 122 40% 4 11.08.2028 -
Mats Egbring Heerenveen Ativo 114 / 115 40% 1 09.08.2028 -
Ludovico Del Sorbo Sorrento Relatório pronto 126 / 127 69% 1 07.08.2028 -
Lamine Bèye Portimonense Ativo 120 / 128 40% 2 04.08.2028 -
Veljko Milosavljević Bournemouth Ativo 143 / 149 40% 1 04.08.2028 -
Ronan Kpakio AC Milan Ativo 122 / 128 40% 3 03.08.2028 -
Nazareno Roselli Defensa y Justicia Ativo 122 / 115 40% 1 01.08.2028 -
Andrea Luongo Trento Ativo 105 / 107 40% 1 25.07.2028 -
Micah Mbick Derby County Ativo 117 / 128 40% 1 25.07.2028 -
Gabe Forsyth Colchester United Ativo 107 / 116 40% 1 25.07.2028 -
Seydou Fofana Pacos de Ferreira Ativo 102 / 114 40% 3 22.07.2028 -
Adam Boufandar Pro Vercelli Ativo 93 / 100 40% 1 22.07.2028 -
Jofre Torrents Ajax Ativo 133 / 136 40% 1 22.07.2028 -
Vasilije Novičić IMT Ativo 107 / 117 40% 2 19.07.2028 -
Olivier Leroux Mouscron Ativo 98 / 114 40% 3 15.07.2028 -
Maxim Radchenko Rostov Ativo 87 / 99 40% 1 11.07.2028 -
Ayden Heaven Portsmouth Ativo 145 / 154 40% 1 10.06.2028 -
Andrea Cogoni Cosenza Ativo 115 / 116 40% 1 08.06.2028 -
Musa Danjuma Umraniyespor Ativo 102 / 102 40% 1 06.06.2028 -
Josh Nichols Oldham Athletic Ativo 128 / 125 40% 1 06.06.2028 -
Augusto Bando Ascoli Ativo 115 / 123 40% 1 05.06.2028 -
Gideon Manaseh Ikorodu City Ativo 98 / 98 40% 3 04.06.2028 -
Alessio Insignito Spezia Ativo 99 / 112 40% 5 03.06.2028 -
Joel Ezra Enyimba Ativo 103 / 107 40% 8 02.06.2028 -
Nicolas Sport Recife Ativo 113 / 107 40% 3 31.01.2028 -
Mao Hosoya Santos Ativo 134 / 135 67% 1 01.01.2028 -
Bitello Universidad de Chile Ativo 135 / 135 68% 1 01.01.2028 -
Victor Hernandez Santa Fe Ativo 123 / 133 40% 5 31.12.2027 -
Yury Oyarzo Racing Ativo 94 / 105 40% 5 30.12.2027 -
Jon Esenga IF Elfsborg Ativo 86 / 93 40% 4 28.12.2027 -
Othniël Raterink Cagliari Ativo 122 / 127 40% 3 28.12.2027 -
Jonny Shore New York City Ativo 87 / 103 40% 6 27.12.2027 -
Niccolò Fortini Fiorentina Ativo 126 / 133 40% 2 26.12.2027 -
Matias Siltanen Malmo FF Ativo 136 / 130 40% 7 24.12.2027 -
Colin Guske Orlando City Ativo 97 / 103 40% 2 24.12.2027 -
Olivier Mambwa Young Boys Ativo 111 / 115 40% 1 22.12.2027 -
Frederik Damkjer Viborg Ativo 96 / 99 40% 1 21.12.2027 -
Oscar Steinke Brånby Hammarby Ativo 108 / 117 40% 7 15.12.2027 -
Pedro Vian Seewald Dolomiti Bellunesi Ativo 94 / 108 40% 1 13.12.2027 -
Matvey Bardachev Zenit Ativo 103 / 106 40% 3 12.12.2027 -
Tobiáš Pališčák Zlin Ativo 90 / 105 40% 1 12.12.2027 -
Jorthy Mokio ADO Den Haag Ativo 133 / 139 40% 1 07.12.2027 -
Amine Boukamir Charleroi Ativo 102 / 107 40% 1 01.12.2027 -
Gonçalo Oliveira Benfica Ativo 117 / 123 40% 1 26.11.2027 -
Agustín Obregón River Plate Ativo 106 / 119 40% 1 24.11.2027 -
Ignacio Fernández Boston River Ativo 95 / 105 40% 2 20.11.2027 -
Tobias Moi Lillestrom Ativo 112 / 118 40% 3 18.11.2027 -
Juan Manuel Villalba Tigre Ativo 119 / 130 40% 3 14.11.2027 -
Adrian Skogmar Malmo FF Ativo 116 / 121 40% 4 13.11.2027 -
Nicolás Blanco San Lorenzo Ativo 109 / 99 40% 1 24.10.2027 -
Fodé Sylla Sion Ativo 117 / 122 40% 2 18.10.2027 -
Ángel Aguayo Sol de America Ativo 88 / 105 40% 1 18.10.2027 -
Hugo Rojas Instituto Ativo 94 / 110 40% 2 17.10.2027 -
Yiandro Raap Ilves Ativo 92 / 99 40% 1 17.10.2027 -
Paulo Cardoso Sporting CP Ativo 96 / 101 40% 1 07.06.2027 -
Marcel Ruiz Crystal Palace Ativo 140 / 141 68% 1 01.06.2027 Aprovar
Zack Nelson Ternana Ativo 99 / 99 40% 1 28.12.2026 -
Monty Batlhabane Polokwane City Ativo 80 / 107 40% 1 28.12.2026 -
Mathys Tel Tottenham Ativo 135 / 144 40% 1 17.12.2026 -
Tudor Mendel-Idowu Gubbio Ativo 84 / 95 40% 1 16.12.2026 -
Artem Slesar Zorya Ativo 105 / 114 40% 2 02.12.2026 -
Romelle Donovan Brentford Ativo 111 / 131 40% 1 02.12.2026 -
Kirill Glebov CSKA Moscow Ativo 124 / 130 40% 1 02.12.2026 -
Martin Gjorgievski Zbrojovka Brno Ativo 99 / 111 40% 1 24.11.2026 -